Time;durP1;ratioP1;P1;durP2;ratioP2;P2;SDS_P1;SDS_P2;PMS_P1;PMS_P2;Temp;Humidity;BMP_temperature;BMP_pressure;BME280_temperature;BME280_humidity;BME280_pressure;Samples;Min_cycle;Max_cycle;Signal;HPM_P1;HPM_P2
2022/03/04 00:00:06;;;;;;;16.40;11.03;;;;;;;;;;5001879;28;20193;-83
2022/03/04 00:02:32;;;;;;;11.63;10.33;;;;;;;;;;5002206;28;20215;-81
2022/03/04 00:04:58;;;;;;;13.60;10.23;;;;;;;;;;5001939;28;20629;-82
2022/03/04 00:07:24;;;;;;;14.23;10.00;;;;;;;;;;5002603;28;20187;-82
2022/03/04 00:09:50;;;;;;;12.37;10.00;;;;;;;;;;5001839;28;20199;-82
2022/03/04 00:12:17;;;;;;;12.77;10.20;;;;;;;;;;5001822;28;20678;-82
2022/03/04 00:14:43;;;;;;;12.40;10.37;;;;;;;;;;4999934;28;20228;-82
2022/03/04 00:17:09;;;;;;;12.73;9.77;;;;;;;;;;5001482;28;20679;-82
2022/03/04 00:19:35;;;;;;;13.43;9.67;;;;;;;;;;4996333;28;20185;-82
2022/03/04 00:22:01;;;;;;;13.23;10.07;;;;;;;;;;5035323;22;20710;-83
2022/03/04 00:24:27;;;;;;;14.40;10.17;;;;;;;;;;5012794;28;20179;-83
2022/03/04 00:26:52;;;;;;;12.77;9.27;;;;;;;;;;5015430;28;20188;-83
2022/03/04 00:29:19;;;;;;;14.83;10.80;;;;;;;;;;5015812;28;20228;-83
2022/03/04 00:31:44;;;;;;;13.47;9.53;;;;;;;;;;5007961;28;20264;-83
2022/03/04 00:34:11;;;;;;;14.23;10.70;;;;;;;;;;4997616;28;20174;-83
2022/03/04 00:36:38;;;;;;;11.63;9.73;;;;;;;;;;4995996;28;20201;-83
2022/03/04 00:39:06;;;;;;;16.13;11.57;;;;;;;;;;4997150;28;20233;-82
2022/03/04 00:41:32;;;;;;;13.87;10.30;;;;;;;;;;4996802;28;20669;-83
2022/03/04 00:43:58;;;;;;;12.10;10.13;;;;;;;;;;4995597;28;20169;-83
2022/03/04 00:46:24;;;;;;;12.47;10.27;;;;;;;;;;4995522;28;20265;-83
2022/03/04 00:48:50;;;;;;;15.03;10.07;;;;;;;;;;4996519;28;20182;-83
2022/03/04 00:51:16;;;;;;;13.80;10.53;;;;;;;;;;4996772;28;20205;-84
2022/03/04 00:53:43;;;;;;;13.47;10.80;;;;;;;;;;4996577;28;20181;-83
2022/03/04 00:56:09;;;;;;;15.53;10.50;;;;;;;;;;4996755;28;20193;-83
2022/03/04 00:58:36;;;;;;;16.33;10.30;;;;;;;;;;4995927;28;20208;-83
2022/03/04 01:01:03;;;;;;;12.30;10.17;;;;;;;;;;4996049;28;20290;-83
2022/03/04 01:03:29;;;;;;;16.00;10.73;;;;;;;;;;4996772;28;20240;-83
2022/03/04 01:05:55;;;;;;;13.47;10.57;;;;;;;;;;4996824;28;20637;-83
2022/03/04 01:08:21;;;;;;;12.73;9.57;;;;;;;;;;4996455;28;20208;-83
2022/03/04 01:10:49;;;;;;;17.40;10.17;;;;;;;;;;4996321;28;20261;-83
2022/03/04 01:13:15;;;;;;;12.93;10.37;;;;;;;;;;4995790;28;20663;-83
2022/03/04 01:15:41;;;;;;;12.93;10.03;;;;;;;;;;4996255;28;20188;-83
2022/03/04 01:18:07;;;;;;;16.63;10.10;;;;;;;;;;4994365;28;20263;-83
2022/03/04 01:20:33;;;;;;;13.60;10.10;;;;;;;;;;4996148;28;20193;-82
2022/03/04 01:22:59;;;;;;;12.90;9.97;;;;;;;;;;4995468;28;20208;-82
2022/03/04 01:25:26;;;;;;;13.57;9.70;;;;;;;;;;4995758;28;20563;-83
2022/03/04 01:27:52;;;;;;;16.00;10.60;;;;;;;;;;4995974;28;20248;-83
2022/03/04 01:30:18;;;;;;;15.00;9.73;;;;;;;;;;4995530;28;20181;-82
2022/03/04 01:32:45;;;;;;;14.70;9.97;;;;;;;;;;4995726;28;20205;-83
2022/03/04 01:35:11;;;;;;;12.80;9.70;;;;;;;;;;4995538;28;20183;-83
2022/03/04 01:37:37;;;;;;;12.97;10.30;;;;;;;;;;4994283;28;20178;-82
2022/03/04 01:40:04;;;;;;;10.27;9.20;;;;;;;;;;4995023;28;20569;-82
2022/03/04 01:42:30;;;;;;;12.07;10.23;;;;;;;;;;4995065;28;20195;-82
2022/03/04 01:44:56;;;;;;;12.77;9.60;;;;;;;;;;4995150;28;20180;-82
2022/03/04 01:47:23;;;;;;;13.07;10.23;;;;;;;;;;4994291;28;20180;-81
2022/03/04 01:49:49;;;;;;;12.87;10.00;;;;;;;;;;4995168;28;20188;-82
2022/03/04 01:52:15;;;;;;;11.30;9.57;;;;;;;;;;4995188;28;20233;-82
2022/03/04 01:54:41;;;;;;;14.10;10.47;;;;;;;;;;5003039;28;20243;-82
2022/03/04 01:57:07;;;;;;;11.90;9.40;;;;;;;;;;5012026;28;20205;-80
2022/03/04 01:59:33;;;;;;;11.87;9.70;;;;;;;;;;5012140;28;20177;-82
2022/03/04 02:01:59;;;;;;;12.83;10.53;;;;;;;;;;5009053;28;20199;-82
2022/03/04 02:04:26;;;;;;;13.37;10.43;;;;;;;;;;4999249;28;20189;-84
2022/03/04 02:06:52;;;;;;;13.63;10.57;;;;;;;;;;4999004;28;20576;-82
2022/03/04 02:09:18;;;;;;;14.27;10.33;;;;;;;;;;4997878;28;20192;-82
2022/03/04 02:11:44;;;;;;;14.53;10.63;;;;;;;;;;5003743;28;20640;-83
2022/03/04 02:14:11;;;;;;;12.77;10.40;;;;;;;;;;5005075;28;20203;-83
2022/03/04 02:16:50;;;;;;;13.23;10.27;;;;;;;;;;5003272;28;20662;-83
2022/03/04 02:19:17;;;;;;;13.20;9.63;;;;;;;;;;5005031;28;20693;-83
2022/03/04 02:21:54;;;;;;;16.07;10.97;;;;;;;;;;5004430;28;20267;-83
2022/03/04 02:24:22;;;;;;;12.50;9.73;;;;;;;;;;5004898;28;20176;-84
2022/03/04 02:26:48;;;;;;;13.67;9.83;;;;;;;;;;5003003;28;20228;-83
2022/03/04 02:29:14;;;;;;;11.87;9.53;;;;;;;;;;5004080;28;20207;-83
2022/03/04 02:31:40;;;;;;;13.60;10.57;;;;;;;;;;5003682;28;20205;-83
2022/03/04 02:34:06;;;;;;;15.00;10.20;;;;;;;;;;5004495;28;20175;-83
2022/03/04 02:36:32;;;;;;;12.07;10.43;;;;;;;;;;5001389;28;20622;-83
2022/03/04 02:38:58;;;;;;;14.10;11.13;;;;;;;;;;5002874;28;20591;-83
2022/03/04 02:41:24;;;;;;;14.80;10.37;;;;;;;;;;4997616;28;20204;-82
2022/03/04 02:43:51;;;;;;;13.77;9.77;;;;;;;;;;4992866;28;20593;-84
2022/03/04 02:46:17;;;;;;;13.70;10.17;;;;;;;;;;5001891;28;20259;-83
2022/03/04 02:48:43;;;;;;;11.77;9.27;;;;;;;;;;5002156;28;20269;-84
2022/03/04 02:51:09;;;;;;;13.30;10.47;;;;;;;;;;5003683;28;20233;-83
2022/03/04 02:53:35;;;;;;;14.17;10.20;;;;;;;;;;5003960;28;20558;-83
2022/03/04 02:56:02;;;;;;;14.23;10.30;;;;;;;;;;5003684;28;20193;-83
2022/03/04 02:58:27;;;;;;;16.63;10.47;;;;;;;;;;5003070;28;20201;-83
2022/03/04 03:00:53;;;;;;;11.93;10.17;;;;;;;;;;5003478;28;20168;-83
2022/03/04 03:03:20;;;;;;;12.93;9.67;;;;;;;;;;5003093;28;20249;-83
2022/03/04 03:05:46;;;;;;;15.37;10.57;;;;;;;;;;5003485;28;20178;-83
2022/03/04 03:08:12;;;;;;;14.67;10.40;;;;;;;;;;5003167;28;20182;-82
2022/03/04 03:10:39;;;;;;;12.40;9.90;;;;;;;;;;5002856;28;20190;-82
2022/03/04 03:13:05;;;;;;;13.17;10.23;;;;;;;;;;5003116;28;20563;-80
2022/03/04 03:15:31;;;;;;;15.47;10.27;;;;;;;;;;5003223;28;20200;-81
2022/03/04 03:17:57;;;;;;;12.57;10.27;;;;;;;;;;5002811;28;20701;-82
2022/03/04 03:20:23;;;;;;;15.00;10.53;;;;;;;;;;5002619;28;20188;-83
2022/03/04 03:22:49;;;;;;;14.20;10.77;;;;;;;;;;4999556;28;20766;-83
2022/03/04 03:25:15;;;;;;;12.90;10.60;;;;;;;;;;4999659;28;20196;-83
2022/03/04 03:27:41;;;;;;;17.53;10.70;;;;;;;;;;4999378;28;20188;-81
2022/03/04 03:30:08;;;;;;;18.73;10.47;;;;;;;;;;4999284;28;20170;-82
2022/03/04 03:32:34;;;;;;;12.97;10.43;;;;;;;;;;4999681;28;20201;-83
2022/03/04 03:35:00;;;;;;;16.03;10.87;;;;;;;;;;4998824;28;20180;-81
2022/03/04 03:37:26;;;;;;;15.80;10.73;;;;;;;;;;4999192;28;20215;-82
2022/03/04 03:39:53;;;;;;;14.90;11.10;;;;;;;;;;4999531;28;20177;-81
2022/03/04 03:42:19;;;;;;;15.87;10.87;;;;;;;;;;5000117;28;20203;-81
2022/03/04 03:44:45;;;;;;;13.77;10.50;;;;;;;;;;5000454;28;20186;-82
2022/03/04 03:47:11;;;;;;;15.80;10.90;;;;;;;;;;4998530;28;20180;-82
2022/03/04 03:49:37;;;;;;;14.10;10.47;;;;;;;;;;4999540;28;20182;-81
2022/03/04 03:52:03;;;;;;;17.47;10.40;;;;;;;;;;5000067;28;20204;-81
2022/03/04 03:54:29;;;;;;;15.90;10.67;;;;;;;;;;4998396;28;20636;-81
2022/03/04 03:56:55;;;;;;;16.67;11.23;;;;;;;;;;5000515;28;20205;-81
2022/03/04 03:59:21;;;;;;;15.40;11.30;;;;;;;;;;4995399;28;20172;-82
2022/03/04 04:01:48;;;;;;;16.13;11.60;;;;;;;;;;4998764;28;20196;-81
2022/03/04 04:04:14;;;;;;;16.10;10.37;;;;;;;;;;4998819;28;20699;-81
2022/03/04 04:06:41;;;;;;;15.53;11.00;;;;;;;;;;4999349;28;20592;-82
2022/03/04 04:09:08;;;;;;;18.13;10.83;;;;;;;;;;4999545;28;20226;-81
2022/03/04 04:11:35;;;;;;;14.47;10.70;;;;;;;;;;4998191;28;20203;-81
2022/03/04 04:14:01;;;;;;;15.20;10.77;;;;;;;;;;4998129;28;20185;-81
2022/03/04 04:16:27;;;;;;;13.67;11.20;;;;;;;;;;4999747;28;20188;-81
2022/03/04 04:18:53;;;;;;;17.97;11.83;;;;;;;;;;4998563;28;20270;-82
2022/03/04 04:21:19;;;;;;;14.63;10.57;;;;;;;;;;4999646;28;20215;-81
2022/03/04 04:23:45;;;;;;;18.53;11.77;;;;;;;;;;4998736;28;20207;-81
2022/03/04 04:26:11;;;;;;;16.73;12.20;;;;;;;;;;4999326;28;20182;-81
2022/03/04 04:28:37;;;;;;;18.40;12.13;;;;;;;;;;4999189;28;20183;-82
2022/03/04 04:31:03;;;;;;;18.70;11.90;;;;;;;;;;4998024;28;20205;-81
2022/03/04 04:33:31;;;;;;;15.67;11.33;;;;;;;;;;4998884;28;20221;-81
2022/03/04 04:35:57;;;;;;;16.80;11.50;;;;;;;;;;4999426;28;20203;-81
2022/03/04 04:38:23;;;;;;;16.13;11.90;;;;;;;;;;4999689;28;20173;-81
2022/03/04 04:40:50;;;;;;;18.17;12.53;;;;;;;;;;4999435;28;20195;-81
2022/03/04 04:43:16;;;;;;;19.10;11.73;;;;;;;;;;4999309;28;20214;-81
2022/03/04 04:45:42;;;;;;;19.17;11.87;;;;;;;;;;4997447;28;20179;-82
2022/03/04 04:48:08;;;;;;;16.60;11.93;;;;;;;;;;4998911;28;20179;-82
2022/03/04 04:50:34;;;;;;;16.30;11.80;;;;;;;;;;4997160;28;20184;-81
2022/03/04 04:53:00;;;;;;;19.43;12.30;;;;;;;;;;4997689;28;20568;-82
2022/03/04 04:55:26;;;;;;;17.90;11.77;;;;;;;;;;4998856;28;20203;-81
2022/03/04 04:57:52;;;;;;;17.13;11.40;;;;;;;;;;4999315;28;20199;-81
2022/03/04 05:00:18;;;;;;;15.07;11.57;;;;;;;;;;4997593;28;20548;-81
2022/03/04 05:02:44;;;;;;;16.93;11.83;;;;;;;;;;4997896;28;20199;-82
2022/03/04 05:05:11;;;;;;;18.23;12.53;;;;;;;;;;4998068;28;20185;-83
2022/03/04 05:07:37;;;;;;;18.77;11.93;;;;;;;;;;4984031;28;20542;-83
2022/03/04 05:10:04;;;;;;;19.00;12.60;;;;;;;;;;4997517;28;20260;-82
2022/03/04 05:12:30;;;;;;;17.00;12.23;;;;;;;;;;4998208;28;20200;-81
2022/03/04 05:14:56;;;;;;;20.53;12.83;;;;;;;;;;4998029;28;20185;-82
2022/03/04 05:17:24;;;;;;;15.77;11.57;;;;;;;;;;4997790;28;20254;-82
2022/03/04 05:19:50;;;;;;;15.97;12.37;;;;;;;;;;4998364;28;20171;-81
2022/03/04 05:22:16;;;;;;;21.03;12.80;;;;;;;;;;4997085;28;20625;-81
2022/03/04 05:24:42;;;;;;;18.53;12.23;;;;;;;;;;4996780;28;20172;-82
2022/03/04 05:27:08;;;;;;;18.03;12.73;;;;;;;;;;4997271;28;20254;-81
2022/03/04 05:29:34;;;;;;;19.50;12.93;;;;;;;;;;4997457;28;20186;-81
2022/03/04 05:32:00;;;;;;;18.83;12.50;;;;;;;;;;4997191;28;20209;-82
2022/03/04 05:34:27;;;;;;;21.40;12.20;;;;;;;;;;4996488;28;20175;-82
2022/03/04 05:36:53;;;;;;;18.30;12.80;;;;;;;;;;4996751;28;20207;-82
2022/03/04 05:39:20;;;;;;;20.13;13.17;;;;;;;;;;4996170;28;20628;-82
2022/03/04 05:41:46;;;;;;;20.20;12.70;;;;;;;;;;4995871;28;20567;-82
2022/03/04 05:44:12;;;;;;;17.97;12.20;;;;;;;;;;4996766;28;20183;-83
2022/03/04 05:46:38;;;;;;;19.73;13.17;;;;;;;;;;4996687;28;20180;-81
2022/03/04 05:49:05;;;;;;;21.67;13.47;;;;;;;;;;4996445;28;20218;-81
2022/03/04 05:51:31;;;;;;;36.30;19.67;;;;;;;;;;4996741;28;20203;-81
2022/03/04 05:53:57;;;;;;;19.90;13.30;;;;;;;;;;4996790;28;20184;-82
2022/03/04 05:56:23;;;;;;;26.27;15.77;;;;;;;;;;4995630;28;20188;-81
2022/03/04 05:58:50;;;;;;;27.23;15.90;;;;;;;;;;4996600;28;20222;-82
2022/03/04 06:01:16;;;;;;;29.70;14.77;;;;;;;;;;4996379;28;20655;-82
2022/03/04 06:03:43;;;;;;;23.10;15.17;;;;;;;;;;4996230;28;20186;-82
2022/03/04 06:06:13;;;;;;;20.37;14.10;;;;;;;;;;4996263;28;20180;-82
2022/03/04 06:08:39;;;;;;;22.20;13.23;;;;;;;;;;4997379;28;20318;-82
2022/03/04 06:11:08;;;;;;;20.20;13.57;;;;;;;;;;4995751;28;20195;-82
2022/03/04 06:13:34;;;;;;;20.10;13.50;;;;;;;;;;4996647;28;20187;-81
2022/03/04 06:16:03;;;;;;;21.37;13.50;;;;;;;;;;4995762;28;20206;-82
2022/03/04 06:18:29;;;;;;;21.23;13.47;;;;;;;;;;4996546;28;20183;-81
2022/03/04 06:20:55;;;;;;;22.07;14.40;;;;;;;;;;4996492;28;20191;-81
2022/03/04 06:23:21;;;;;;;25.43;15.10;;;;;;;;;;5012365;22;20233;-81
2022/03/04 06:25:47;;;;;;;21.90;14.43;;;;;;;;;;5014622;28;20192;-81
2022/03/04 06:28:13;;;;;;;22.43;14.97;;;;;;;;;;5020257;28;20183;-81
2022/03/04 06:30:40;;;;;;;24.07;15.70;;;;;;;;;;5003015;28;20704;-81
2022/03/04 06:35:54;;;;;;;28.63;17.17;;;;;;;;;;5022172;28;20663;-78
2022/03/04 06:38:20;;;;;;;23.63;14.77;;;;;;;;;;5003685;28;20195;-78
2022/03/04 06:40:50;;;;;;;26.73;15.70;;;;;;;;;;4973618;28;20177;-81
2022/03/04 06:43:16;;;;;;;23.47;14.43;;;;;;;;;;4989969;28;20638;-81
2022/03/04 06:45:43;;;;;;;26.47;15.50;;;;;;;;;;4970018;28;20189;-81
2022/03/04 06:48:13;;;;;;;39.67;21.50;;;;;;;;;;5005280;28;20204;-80
2022/03/04 06:50:39;;;;;;;28.83;17.73;;;;;;;;;;5000629;28;20181;-77
2022/03/04 06:53:05;;;;;;;48.03;26.10;;;;;;;;;;4984312;28;21316;-80
2022/03/04 06:55:32;;;;;;;28.43;16.47;;;;;;;;;;4989127;28;20284;-81
2022/03/04 06:57:58;;;;;;;23.90;14.27;;;;;;;;;;4978914;28;20201;-81
2022/03/04 07:00:33;;;;;;;27.50;15.47;;;;;;;;;;4975178;28;20188;-80
2022/03/04 07:03:02;;;;;;;26.97;16.47;;;;;;;;;;5029694;28;20182;-80
2022/03/04 07:05:28;;;;;;;29.40;15.13;;;;;;;;;;5008690;28;20199;-79
2022/03/04 07:07:54;;;;;;;20.87;13.70;;;;;;;;;;5032906;28;20179;-80
2022/03/04 07:10:21;;;;;;;19.23;13.87;;;;;;;;;;5021987;28;20179;-80
2022/03/04 07:12:47;;;;;;;23.33;13.97;;;;;;;;;;5010568;28;20184;-77
2022/03/04 07:15:13;;;;;;;25.33;14.70;;;;;;;;;;4991148;28;20210;-81
2022/03/04 07:17:40;;;;;;;25.30;14.03;;;;;;;;;;4984250;28;20188;-77
2022/03/04 07:20:07;;;;;;;20.57;14.87;;;;;;;;;;4993703;28;20205;-80
2022/03/04 07:22:35;;;;;;;23.23;14.33;;;;;;;;;;4991134;28;20195;-80
2022/03/04 07:25:01;;;;;;;21.63;14.77;;;;;;;;;;4999770;28;20215;-81
2022/03/04 07:27:27;;;;;;;20.47;13.90;;;;;;;;;;5018683;28;20187;-80
2022/03/04 07:29:53;;;;;;;22.27;14.27;;;;;;;;;;5001400;28;20183;-78
2022/03/04 07:32:21;;;;;;;24.57;14.57;;;;;;;;;;5018132;28;20177;-80
2022/03/04 07:34:49;;;;;;;21.83;14.97;;;;;;;;;;4989786;28;20579;-81
2022/03/04 07:37:15;;;;;;;25.53;14.87;;;;;;;;;;4973036;28;20231;-82
2022/03/04 07:39:44;;;;;;;22.80;14.27;;;;;;;;;;4999821;28;20181;-80
2022/03/04 07:42:11;;;;;;;24.30;15.17;;;;;;;;;;5020493;28;20262;-81
2022/03/04 07:44:37;;;;;;;26.67;17.77;;;;;;;;;;5004381;28;20196;-80
2022/03/04 07:47:03;;;;;;;23.10;14.17;;;;;;;;;;5023033;28;20520;-80
2022/03/04 07:49:29;;;;;;;23.07;13.93;;;;;;;;;;4985833;28;20192;-81
2022/03/04 07:51:55;;;;;;;25.83;15.20;;;;;;;;;;4983129;28;20236;-82
2022/03/04 07:54:21;;;;;;;28.17;14.87;;;;;;;;;;5020717;28;20294;-80
2022/03/04 07:56:56;;;;;;;22.60;13.80;;;;;;;;;;5007803;28;20254;-81
2022/03/04 07:59:22;;;;;;;23.90;15.03;;;;;;;;;;4997193;28;20181;-79
2022/03/04 08:01:49;;;;;;;24.00;14.83;;;;;;;;;;5018427;28;20183;-82
2022/03/04 08:04:15;;;;;;;21.30;14.13;;;;;;;;;;5019650;28;20243;-81
2022/03/04 08:06:41;;;;;;;20.97;13.77;;;;;;;;;;5007733;28;20658;-82
2022/03/04 08:09:07;;;;;;;28.03;14.93;;;;;;;;;;5016983;28;20190;-81
2022/03/04 08:11:34;;;;;;;23.00;14.20;;;;;;;;;;5018211;28;20186;-79
2022/03/04 08:14:00;;;;;;;20.50;14.93;;;;;;;;;;4993099;28;20219;-81
2022/03/04 08:16:29;;;;;;;22.20;14.83;;;;;;;;;;4990417;28;20211;-82
2022/03/04 08:18:55;;;;;;;41.00;18.97;;;;;;;;;;4977896;28;20626;-81
2022/03/04 08:21:21;;;;;;;38.40;21.07;;;;;;;;;;5000710;28;20689;-81
2022/03/04 08:23:47;;;;;;;28.87;16.33;;;;;;;;;;5002753;28;20242;-82
2022/03/04 08:26:13;;;;;;;22.70;14.43;;;;;;;;;;5021599;28;20183;-82
2022/03/04 08:28:39;;;;;;;27.50;15.27;;;;;;;;;;5019198;28;20676;-82
2022/03/04 08:31:10;;;;;;;43.37;21.90;;;;;;;;;;5002049;28;20197;-81
2022/03/04 08:33:37;;;;;;;25.67;15.70;;;;;;;;;;4970541;28;20756;-82
2022/03/04 08:36:06;;;;;;;40.53;19.80;;;;;;;;;;4966967;28;20211;-81
2022/03/04 08:38:35;;;;;;;38.87;19.70;;;;;;;;;;4998478;28;20621;-83
2022/03/04 08:41:03;;;;;;;26.53;15.57;;;;;;;;;;4976609;28;20185;-82
2022/03/04 09:32:50;;;;;;;20.83;14.77;;;;;;;;;;5201716;23;20243;-82
2022/03/04 09:35:18;;;;;;;24.73;16.27;;;;;;;;;;5026549;28;20227;-82
2022/03/04 09:37:45;;;;;;;23.13;14.20;;;;;;;;;;5013753;28;20182;-81
2022/03/04 09:40:20;;;;;;;25.20;15.50;;;;;;;;;;5005162;28;20172;-82
2022/03/04 09:42:46;;;;;;;28.93;15.43;;;;;;;;;;5035162;28;20707;-82
2022/03/04 10:53:31;;;;;;;13.70;9.87;;;;;;;;;;6104730;23;20202;-82
2022/03/04 10:56:15;;;;;;;20.40;12.90;;;;;;;;;;4942938;29;20210;-83
2022/03/04 10:58:44;;;;;;;19.87;11.30;;;;;;;;;;4962301;29;20180;-83
2022/03/04 12:05:35;;;;;;;11.70;10.53;;;;;;;;;;4974519;28;20219;-82
2022/03/04 12:08:07;;;;;;;13.03;9.93;;;;;;;;;;4979322;28;20180;-82
2022/03/04 12:25:32;;;;;;;;;;;;;;;;;;;;;
2022/03/04 12:33:59;;;;;;;10.03;8.43;;;;;;;;;;4932586;29;20189;-82
2022/03/04 12:36:30;;;;;;;10.90;9.23;;;;;;;;;;4932721;29;20209;-82
2022/03/04 12:38:57;;;;;;;11.03;8.60;;;;;;;;;;4929876;29;20194;-83
2022/03/04 12:41:44;;;;;;;9.17;7.23;;;;;;;;;;4926210;29;20197;-82
2022/03/04 12:44:10;;;;;;;9.50;7.67;;;;;;;;;;4927369;28;20201;-83
2022/03/04 12:46:37;;;;;;;16.70;8.20;;;;;;;;;;4984951;28;20187;-83
2022/03/04 12:49:04;;;;;;;9.33;8.40;;;;;;;;;;4971947;28;20556;-83
2022/03/04 12:51:37;;;;;;;9.43;8.30;;;;;;;;;;4983470;28;20186;-81
2022/03/04 12:54:09;;;;;;;8.97;7.70;;;;;;;;;;4984757;28;20217;-82
2022/03/04 12:56:41;;;;;;;9.87;8.30;;;;;;;;;;4984934;28;20291;-80
2022/03/04 12:59:20;;;;;;;9.17;8.20;;;;;;;;;;4986547;28;20203;-83
2022/03/04 13:01:53;;;;;;;9.57;8.53;;;;;;;;;;4968458;28;20186;-84
2022/03/04 13:04:23;;;;;;;11.50;8.30;;;;;;;;;;4986217;28;20211;-83
2022/03/04 13:07:01;;;;;;;10.43;7.60;;;;;;;;;;4988409;28;20663;-83
2022/03/04 13:09:49;;;;;;;8.57;7.17;;;;;;;;;;4971220;28;20214;-84
2022/03/04 13:12:23;;;;;;;9.17;7.23;;;;;;;;;;4990716;28;20194;-84
2022/03/04 13:18:00;;;;;;;10.20;7.37;;;;;;;;;;4990626;28;20215;-84
2022/03/04 13:20:49;;;;;;;8.80;7.97;;;;;;;;;;4990046;28;20196;-84
2022/03/04 13:23:19;;;;;;;9.07;8.17;;;;;;;;;;4980806;28;20203;-83
2022/03/04 13:25:45;;;;;;;49.47;28.77;;;;;;;;;;4986863;28;20241;-83
2022/03/04 13:28:18;;;;;;;20.83;14.77;;;;;;;;;;4967045;28;20188;-83
2022/03/04 13:30:55;;;;;;;8.17;7.37;;;;;;;;;;4970775;28;20184;-82
2022/03/04 13:33:24;;;;;;;9.47;7.80;;;;;;;;;;4966699;28;20187;-83
2022/03/04 13:35:55;;;;;;;7.07;6.37;;;;;;;;;;4965301;28;20242;-82
2022/03/04 13:38:45;;;;;;;8.77;6.63;;;;;;;;;;4987043;28;20180;-83
2022/03/04 13:41:23;;;;;;;7.40;6.70;;;;;;;;;;4976267;28;20199;-83
2022/03/04 13:44:04;;;;;;;9.17;6.60;;;;;;;;;;4984513;28;20203;-82
2022/03/04 13:46:30;;;;;;;7.40;6.67;;;;;;;;;;4983676;28;20205;-82
2022/03/04 13:49:06;;;;;;;7.97;6.93;;;;;;;;;;4966878;28;20208;-82
2022/03/04 13:51:33;;;;;;;9.00;8.10;;;;;;;;;;4984680;28;20183;-82
2022/03/04 13:54:00;;;;;;;10.37;8.23;;;;;;;;;;4981968;28;20657;-82
2022/03/04 13:56:40;;;;;;;7.87;7.13;;;;;;;;;;4983413;28;20203;-82
2022/03/04 13:59:15;;;;;;;9.93;7.97;;;;;;;;;;4985222;28;20183;-82
2022/03/04 14:02:16;;;;;;;;;;;;;;;;;;;;;
2022/03/04 14:04:56;;;;;;;9.00;7.70;;;;;;;;;;4955424;28;20270;-83
2022/03/04 14:07:25;;;;;;;9.50;7.90;;;;;;;;;;4983504;28;20188;-83
2022/03/04 14:09:52;;;;;;;11.47;7.90;;;;;;;;;;4982638;28;20186;-83
2022/03/04 14:12:18;;;;;;;9.83;7.03;;;;;;;;;;4982032;28;20218;-83
2022/03/04 14:14:44;;;;;;;9.60;7.50;;;;;;;;;;4965753;28;20211;-83
2022/03/04 14:17:21;;;;;;;8.50;7.50;;;;;;;;;;4982666;28;20207;-83
2022/03/04 14:19:49;;;;;;;8.77;7.87;;;;;;;;;;4981621;28;20179;-83
2022/03/04 14:22:15;;;;;;;9.30;8.23;;;;;;;;;;4981160;28;20187;-82
2022/03/04 14:24:41;;;;;;;12.40;8.50;;;;;;;;;;4981141;28;20231;-82
2022/03/04 14:27:09;;;;;;;9.03;8.00;;;;;;;;;;4981472;28;20527;-82
2022/03/04 14:29:35;;;;;;;10.87;7.23;;;;;;;;;;4982577;28;20198;-83
2022/03/04 14:32:01;;;;;;;8.70;7.60;;;;;;;;;;4983123;28;20207;-82
2022/03/04 14:34:32;;;;;;;9.70;7.43;;;;;;;;;;4966921;28;20226;-84
2022/03/04 14:36:58;;;;;;;9.33;8.17;;;;;;;;;;4981744;28;20220;-83
2022/03/04 14:39:41;;;;;;;10.90;8.27;;;;;;;;;;4982659;28;20214;-83
2022/03/04 14:42:08;;;;;;;12.10;8.03;;;;;;;;;;4983003;28;20179;-83
2022/03/04 14:44:34;;;;;;;8.93;8.03;;;;;;;;;;4981507;28;20195;-83
2022/03/04 14:47:00;;;;;;;8.10;7.30;;;;;;;;;;4975996;28;20199;-82
2022/03/04 14:49:26;;;;;;;9.40;7.63;;;;;;;;;;4990932;28;20224;-82
2022/03/04 14:51:52;;;;;;;10.27;7.27;;;;;;;;;;4983327;28;20179;-82
2022/03/04 14:54:20;;;;;;;8.07;7.23;;;;;;;;;;4976787;28;20270;-82
2022/03/04 14:56:46;;;;;;;9.93;7.83;;;;;;;;;;4980208;28;20277;-83
2022/03/04 14:59:12;;;;;;;8.80;7.70;;;;;;;;;;4981910;28;20211;-83
2022/03/04 15:01:41;;;;;;;9.93;7.37;;;;;;;;;;4963622;28;20196;-83
2022/03/04 15:04:10;;;;;;;9.80;7.63;;;;;;;;;;4968830;28;20206;-81
2022/03/04 15:06:36;;;;;;;8.17;7.40;;;;;;;;;;4973149;28;20180;-84
2022/03/04 15:09:09;;;;;;;10.20;7.50;;;;;;;;;;4981786;28;20330;-84
2022/03/04 15:11:57;;;;;;;9.30;7.13;;;;;;;;;;4982564;28;20191;-84
2022/03/04 15:14:38;;;;;;;8.03;7.23;;;;;;;;;;4986230;28;20212;-84
2022/03/04 15:20:27;;;;;;;9.10;6.83;;;;;;;;;;4970285;28;20179;-82
2022/03/04 15:22:53;;;;;;;8.67;7.10;;;;;;;;;;4967688;28;20187;-82
2022/03/04 15:25:19;;;;;;;8.63;7.17;;;;;;;;;;4984898;28;20230;-82
2022/03/04 15:27:45;;;;;;;7.30;6.40;;;;;;;;;;4985709;28;20671;-79
2022/03/04 15:30:12;;;;;;;12.90;8.00;;;;;;;;;;4984217;28;20179;-82
2022/03/04 15:32:40;;;;;;;9.47;8.30;;;;;;;;;;4967770;28;20184;-82
2022/03/04 15:35:06;;;;;;;10.87;7.87;;;;;;;;;;4984482;28;20210;-81
2022/03/04 15:37:32;;;;;;;10.33;7.70;;;;;;;;;;4981741;28;20215;-80
2022/03/04 15:39:58;;;;;;;10.17;8.50;;;;;;;;;;4963904;28;20179;-80
2022/03/04 15:42:24;;;;;;;12.13;9.47;;;;;;;;;;4981858;28;20188;-80
2022/03/04 15:44:55;;;;;;;14.33;9.57;;;;;;;;;;4964129;28;20199;-80
2022/03/04 15:47:22;;;;;;;10.13;8.60;;;;;;;;;;4965471;28;20669;-81
2022/03/04 15:49:48;;;;;;;9.60;7.87;;;;;;;;;;4983036;28;20188;-82
2022/03/04 15:52:15;;;;;;;9.80;8.03;;;;;;;;;;4979024;28;20205;-81
2022/03/04 15:54:41;;;;;;;9.87;8.27;;;;;;;;;;4985020;28;20250;-81
2022/03/04 15:57:07;;;;;;;8.50;7.60;;;;;;;;;;4981468;28;20365;-81
2022/03/04 15:59:33;;;;;;;12.87;8.73;;;;;;;;;;4987157;28;20219;-81
2022/03/04 16:01:59;;;;;;;9.80;8.33;;;;;;;;;;4986513;28;20199;-82
2022/03/04 16:04:25;;;;;;;12.17;8.90;;;;;;;;;;4988239;28;20253;-82
2022/03/04 16:06:51;;;;;;;9.80;8.43;;;;;;;;;;4988183;28;20191;-81
2022/03/04 16:09:18;;;;;;;11.20;8.47;;;;;;;;;;4987698;28;20194;-82
2022/03/04 16:11:44;;;;;;;12.87;9.43;;;;;;;;;;4985888;28;20183;-82
2022/03/04 16:14:10;;;;;;;10.37;8.93;;;;;;;;;;4986451;28;20213;-82
2022/03/04 16:16:37;;;;;;;11.80;9.67;;;;;;;;;;4969101;28;20211;-82
2022/03/04 16:19:04;;;;;;;11.07;9.37;;;;;;;;;;4970070;28;20175;-81
2022/03/04 16:21:30;;;;;;;12.27;9.87;;;;;;;;;;4984346;28;20650;-82
2022/03/04 16:23:56;;;;;;;13.70;9.60;;;;;;;;;;4966267;28;20270;-82
2022/03/04 16:26:23;;;;;;;15.37;9.87;;;;;;;;;;4983997;28;20214;-82
2022/03/04 16:28:49;;;;;;;11.57;9.50;;;;;;;;;;4982379;28;20238;-82
2022/03/04 16:31:15;;;;;;;10.53;8.47;;;;;;;;;;4981083;28;20217;-82
2022/03/04 16:33:41;;;;;;;12.43;8.97;;;;;;;;;;4965748;28;20187;-82
2022/03/04 16:36:08;;;;;;;14.13;9.63;;;;;;;;;;4967592;28;20210;-83
2022/03/04 16:38:34;;;;;;;14.97;10.80;;;;;;;;;;4986296;28;20555;-82
2022/03/04 16:41:01;;;;;;;13.07;10.17;;;;;;;;;;4981849;28;20248;-81
2022/03/04 16:43:29;;;;;;;13.57;9.77;;;;;;;;;;4969766;28;20172;-81
2022/03/04 16:45:55;;;;;;;12.27;9.80;;;;;;;;;;4994681;28;20214;-83
2022/03/04 16:48:21;;;;;;;12.67;9.87;;;;;;;;;;4987708;28;20269;-82
2022/03/04 16:50:49;;;;;;;15.40;9.87;;;;;;;;;;4988137;28;20177;-83
2022/03/04 16:53:16;;;;;;;13.20;10.50;;;;;;;;;;4987397;28;20211;-83
2022/03/04 16:55:43;;;;;;;13.47;9.60;;;;;;;;;;4985219;28;20231;-84
2022/03/04 16:58:11;;;;;;;15.20;10.00;;;;;;;;;;4971182;28;20182;-79
2022/03/04 17:00:38;;;;;;;12.83;9.20;;;;;;;;;;4986819;28;20186;-82
2022/03/04 17:03:04;;;;;;;15.40;9.63;;;;;;;;;;4969586;28;20173;-83
2022/03/04 17:05:32;;;;;;;14.40;10.40;;;;;;;;;;4968857;28;20202;-82
2022/03/04 17:07:58;;;;;;;12.93;10.03;;;;;;;;;;4967186;28;20705;-82
2022/03/04 17:10:24;;;;;;;13.73;10.50;;;;;;;;;;4987810;28;20185;-83
2022/03/04 17:12:51;;;;;;;13.10;10.50;;;;;;;;;;4969219;28;20250;-82
2022/03/04 17:15:17;;;;;;;12.30;10.10;;;;;;;;;;4966803;28;20209;-81
2022/03/04 17:17:43;;;;;;;17.20;11.13;;;;;;;;;;4982645;28;20707;-81
2022/03/04 17:20:12;;;;;;;16.50;11.93;;;;;;;;;;4966988;28;20170;-81
2022/03/04 17:22:38;;;;;;;14.87;10.53;;;;;;;;;;4983937;28;20203;-82
2022/03/04 17:25:07;;;;;;;15.17;11.37;;;;;;;;;;4967861;28;20219;-82
2022/03/04 17:27:33;;;;;;;16.67;11.43;;;;;;;;;;4968105;28;20654;-83
2022/03/04 17:30:00;;;;;;;19.40;11.50;;;;;;;;;;4968311;28;20184;-83
2022/03/04 17:32:26;;;;;;;17.43;11.60;;;;;;;;;;4969270;28;20189;-84
2022/03/04 17:34:52;;;;;;;16.50;11.03;;;;;;;;;;4972108;28;20216;-82
2022/03/04 17:37:22;;;;;;;12.70;11.20;;;;;;;;;;4978928;28;20313;-81
2022/03/04 17:39:48;;;;;;;13.90;10.77;;;;;;;;;;4943519;29;20186;-83
2022/03/04 17:45:37;;;;;;;12.77;10.60;;;;;;;;;;4981165;28;20216;-80
2022/03/04 17:48:19;;;;;;;14.87;10.43;;;;;;;;;;4886915;29;20195;-80
2022/03/04 17:51:28;;;;;;;14.50;11.47;;;;;;;;;;4886077;29;20206;-80
2022/03/04 17:56:55;;;;;;;14.47;10.87;;;;;;;;;;4989406;28;20279;-79
2022/03/04 18:02:37;;;;;;;14.30;11.13;;;;;;;;;;4938119;29;20190;-80
2022/03/04 18:08:17;;;;;;;19.77;11.83;;;;;;;;;;4974018;28;20189;-82
2022/03/04 18:26:13;;;;;;;18.17;12.53;;;;;;;;;;5020977;23;20243;-82
2022/03/04 18:28:39;;;;;;;18.03;11.40;;;;;;;;;;4963499;28;20245;-84